createdAt,value
2023-02-04T00:00:37.365Z,98281.13
2023-02-04T00:03:06.933Z,98273.66
2023-02-04T00:05:35.438Z,98285.09
2023-02-04T00:08:06.737Z,98295.28
2023-02-04T00:10:37.082Z,98289.75
2023-02-04T00:13:05.563Z,98287.72
2023-02-04T00:15:33.840Z,98292.25
2023-02-04T00:18:02.177Z,98285.66
2023-02-04T00:20:30.940Z,98287.09
2023-02-04T00:22:59.457Z,98297.41
2023-02-04T00:25:28.076Z,98293.41
2023-02-04T00:27:57.719Z,98300.22
2023-02-04T00:30:26.081Z,98294.09
2023-02-04T00:32:55.070Z,98292.06
2023-02-04T00:35:23.859Z,98284.38
2023-02-04T00:37:52.660Z,98289.78
2023-02-04T00:40:21.260Z,98288.44
2023-02-04T00:42:49.481Z,98292.97
2023-02-04T00:45:19.130Z,98290.91
2023-02-04T00:47:47.439Z,98309.00
2023-02-04T00:50:16.018Z,98301.31
2023-02-04T00:52:44.294Z,98307.94
2023-02-04T00:55:12.897Z,98307.69
2023-02-04T00:57:41.154Z,98321.25
2023-02-04T01:00:11.326Z,98317.03
2023-02-04T01:02:41.334Z,98312.84
2023-02-04T01:05:10.412Z,98323.88
2023-02-04T01:07:38.820Z,98324.00
2023-02-04T01:10:07.709Z,98330.22
2023-02-04T01:12:35.968Z,98329.28
2023-02-04T01:15:04.858Z,98336.38
2023-02-04T01:17:33.441Z,98342.69
2023-02-04T01:20:03.107Z,98338.03
2023-02-04T01:22:31.355Z,98337.06
2023-02-04T01:24:59.585Z,98348.25
2023-02-04T01:27:27.863Z,98317.69
2023-02-04T01:29:56.109Z,98323.69
2023-02-04T01:32:24.433Z,98333.72
2023-02-04T01:34:52.704Z,98325.16
2023-02-04T01:37:22.323Z,98329.63
2023-02-04T01:39:50.564Z,98334.47
2023-02-04T01:42:19.052Z,98341.53
2023-02-04T01:44:47.864Z,98347.88
2023-02-04T01:47:16.209Z,98364.53
2023-02-04T01:49:44.750Z,98364.53
2023-02-04T01:52:13.788Z,98364.22
2023-02-04T01:54:43.414Z,98370.56
2023-02-04T01:57:16.293Z,98387.56
2023-02-04T01:59:46.385Z,98387.94
2023-02-04T02:02:42.116Z,98385.84
2023-02-04T02:05:13.755Z,98389.00
2023-02-04T02:07:42.257Z,98400.41
2023-02-04T02:10:14.230Z,98401.13
2023-02-04T02:12:43.294Z,98405.97
2023-02-04T02:15:13.667Z,98415.56
2023-02-04T02:17:42.328Z,98403.13
2023-02-04T02:20:14.425Z,98418.09
2023-02-04T02:22:55.264Z,98413.13
2023-02-04T02:25:24.967Z,98433.19
2023-02-04T02:27:53.451Z,98419.38
2023-02-04T02:30:21.935Z,98415.56
2023-02-04T02:32:51.741Z,98412.22
2023-02-04T02:35:20.224Z,98418.50
2023-02-04T02:37:48.561Z,98422.97
2023-02-04T02:40:17.212Z,98418.50
2023-02-04T02:42:52.482Z,98429.81
2023-02-04T02:45:26.680Z,98429.69
2023-02-04T02:47:55.687Z,98425.28
2023-02-04T02:50:28.563Z,98430.94
2023-02-04T02:52:57.337Z,98450.03
2023-02-04T02:55:28.592Z,98440.44
2023-02-04T02:57:58.536Z,98434.97
2023-02-04T03:00:31.164Z,98453.31
2023-02-04T03:03:03.721Z,98460.47
2023-02-04T03:05:37.178Z,98452.56
2023-02-04T03:08:06.703Z,98451.41
2023-02-04T03:10:35.508Z,98459.00
2023-02-04T03:13:05.998Z,98451.44
2023-02-04T03:15:34.772Z,98456.81
2023-02-04T03:18:03.798Z,98474.41
2023-02-04T03:20:34.192Z,98474.31
2023-02-04T03:23:02.626Z,98478.41
2023-02-04T03:25:30.948Z,98488.94
2023-02-04T03:28:00.223Z,98483.34
2023-02-04T03:30:30.230Z,98479.59
2023-02-04T03:32:58.911Z,98482.72
2023-02-04T03:35:27.263Z,98478.97
2023-02-04T03:37:55.649Z,98496.38
2023-02-04T03:40:23.876Z,98494.69
2023-02-04T03:42:52.112Z,98491.22
2023-02-04T03:45:20.389Z,98496.38
2023-02-04T03:47:49.955Z,98493.31
2023-02-04T03:50:18.446Z,98503.53
2023-02-04T03:52:46.659Z,98504.19
2023-02-04T03:55:14.963Z,98501.44
2023-02-04T03:57:43.211Z,98498.59
2023-02-04T04:00:13.639Z,98502.47
2023-02-04T04:02:42.572Z,98511.56
2023-02-04T04:05:12.420Z,98520.34
2023-02-04T04:07:40.662Z,98529.06
2023-02-04T04:10:09.767Z,98530.34
2023-02-04T04:12:38.124Z,98524.97
2023-02-04T04:15:06.982Z,98524.00
2023-02-04T04:17:35.818Z,98542.88
2023-02-04T04:20:04.351Z,98535.94
2023-02-04T04:22:33.957Z,98539.31
2023-02-04T04:25:02.262Z,98541.31
2023-02-04T04:27:31.078Z,98541.41
2023-02-04T04:29:59.478Z,98551.88
2023-02-04T04:32:27.740Z,98554.41
2023-02-04T04:34:55.972Z,98557.13
2023-02-04T04:37:24.237Z,98566.28
2023-02-04T04:39:53.947Z,98580.28
2023-02-04T04:42:22.562Z,98574.91
2023-02-04T04:44:50.792Z,98581.16
2023-02-04T04:47:19.059Z,98597.94
2023-02-04T04:49:47.299Z,98598.13
2023-02-04T04:52:15.522Z,98606.25
2023-02-04T04:54:43.931Z,98599.28
2023-02-04T04:57:13.540Z,98605.28
2023-02-04T04:59:41.755Z,98613.66
2023-02-04T05:02:09.981Z,98598.47
2023-02-04T05:04:38.258Z,98605.75
2023-02-04T05:07:06.494Z,98617.69
2023-02-04T05:09:34.773Z,98629.00
2023-02-04T05:12:03.027Z,98623.94
2023-02-04T05:14:32.696Z,98643.00
2023-02-04T05:17:00.977Z,98653.66
2023-02-04T05:19:29.204Z,98656.78
2023-02-04T05:21:57.569Z,98661.13
2023-02-04T05:24:25.860Z,98656.78
2023-02-04T05:26:54.092Z,98665.75
2023-02-04T05:29:22.367Z,98667.16
2023-02-04T05:31:51.955Z,98669.69
2023-02-04T05:34:20.247Z,98671.81
2023-02-04T05:36:48.491Z,98674.25
2023-02-04T05:39:16.702Z,98697.19
2023-02-04T05:41:44.943Z,98695.72
2023-02-04T05:44:13.177Z,98699.28
2023-02-04T05:46:41.415Z,98701.81
2023-02-04T05:49:11.038Z,98702.66
2023-02-04T05:51:39.315Z,98707.84
2023-02-04T05:54:07.578Z,98717.31
2023-02-04T05:56:35.794Z,98713.59
2023-02-04T05:59:04.033Z,98722.53
2023-02-04T06:01:32.240Z,98724.72
2023-02-04T06:04:00.557Z,98744.00
2023-02-04T06:06:30.269Z,98760.00
2023-02-04T06:08:58.479Z,98780.28
2023-02-04T06:11:26.811Z,98803.06
2023-02-04T06:13:55.014Z,98813.91
2023-02-04T06:16:23.307Z,98826.72
2023-02-04T06:18:51.600Z,98834.72
2023-02-04T06:21:20.267Z,98838.50
2023-02-04T06:23:49.885Z,98840.69
2023-02-04T06:26:18.161Z,98848.69
2023-02-04T06:28:46.448Z,98856.22
2023-02-04T06:31:14.697Z,98861.69
2023-02-04T06:33:43.005Z,98874.84
2023-02-04T06:36:11.246Z,98874.19
2023-02-04T06:38:39.473Z,98884.09
2023-02-04T06:41:09.080Z,98888.59
2023-02-04T06:43:37.342Z,98888.88
2023-02-04T06:46:05.984Z,98895.28
2023-02-04T06:48:34.234Z,98895.47
2023-02-04T06:51:02.466Z,98900.16
2023-02-04T06:53:30.729Z,98901.94
2023-02-04T06:55:58.947Z,98920.44
2023-02-04T06:58:28.581Z,98918.88
2023-02-04T07:00:56.787Z,98925.06
2023-02-04T07:03:25.087Z,98933.75
2023-02-04T07:05:54.150Z,98938.16
2023-02-04T07:08:22.704Z,98951.25
2023-02-04T07:10:50.978Z,98948.59
2023-02-04T07:13:19.198Z,98950.38
2023-02-04T07:15:48.874Z,98961.00
2023-02-04T07:18:17.956Z,98964.00
2023-02-04T07:20:46.204Z,98967.41
2023-02-04T07:23:14.487Z,98972.59
2023-02-04T07:25:44.180Z,98980.56
2023-02-04T07:28:12.551Z,98985.84
2023-02-04T07:30:40.869Z,98995.59
2023-02-04T07:33:10.539Z,99004.28
2023-02-04T07:35:39.170Z,98999.78
2023-02-04T07:38:08.157Z,99003.34
2023-02-04T07:40:36.454Z,99010.41
2023-02-04T07:43:05.044Z,99009.72
2023-02-04T07:45:33.319Z,99005.31
2023-02-04T07:48:01.567Z,99014.91
2023-02-04T07:50:31.605Z,99014.06
2023-02-04T07:53:00.129Z,99020.44
2023-02-04T07:55:28.674Z,99031.16
2023-02-04T07:57:56.957Z,99036.59
2023-02-04T08:00:25.531Z,99035.66
2023-02-04T08:02:53.924Z,99041.84
2023-02-04T08:05:22.182Z,99053.16
2023-02-04T08:07:51.848Z,99062.16
2023-02-04T08:10:21.434Z,99063.53
2023-02-04T08:12:49.674Z,99070.22
2023-02-04T08:15:18.089Z,99071.00
2023-02-04T08:17:46.347Z,99075.31
2023-02-04T08:20:14.588Z,99074.66
2023-02-04T08:22:42.799Z,99061.75
2023-02-04T08:25:13.496Z,99068.72
2023-02-04T08:27:42.666Z,99076.53
2023-02-04T08:30:13.258Z,99080.34
2023-02-04T08:32:41.622Z,99081.97
2023-02-04T08:35:10.429Z,99084.50
2023-02-04T08:37:38.695Z,99081.97
2023-02-04T08:40:07.946Z,99086.13
2023-02-04T08:42:37.619Z,99093.00
2023-02-04T08:45:06.367Z,99103.63
2023-02-04T08:47:34.588Z,99109.56
2023-02-04T08:50:03.540Z,99110.34
2023-02-04T08:52:31.916Z,99123.50
2023-02-04T08:55:00.105Z,99121.47
2023-02-04T08:57:28.323Z,99122.81
2023-02-04T08:59:58.013Z,99126.78
2023-02-04T09:02:26.319Z,99127.97
2023-02-04T09:04:54.596Z,99126.63
2023-02-04T09:07:22.847Z,99131.09
2023-02-04T09:09:51.102Z,99133.78
2023-02-04T09:12:19.414Z,99137.03
2023-02-04T09:14:48.191Z,99143.16
2023-02-04T09:17:17.919Z,99139.75
2023-02-04T09:19:46.178Z,99137.56
2023-02-04T09:22:15.440Z,99151.13
2023-02-04T09:24:43.657Z,99152.63
2023-02-04T09:27:11.892Z,99162.16
2023-02-04T09:29:40.104Z,99155.59
2023-02-04T09:32:08.350Z,99169.75
2023-02-04T09:34:37.914Z,99170.44
2023-02-04T09:37:06.283Z,99169.59
2023-02-04T09:39:34.541Z,99181.06
2023-02-04T09:42:02.884Z,99184.69
2023-02-04T09:44:31.718Z,99199.13
2023-02-04T09:47:02.400Z,99191.88
2023-02-04T09:49:30.793Z,99200.69
2023-02-04T09:52:00.583Z,99205.16
2023-02-04T09:54:28.836Z,99204.22
2023-02-04T09:56:57.497Z,99200.84
2023-02-04T09:59:29.404Z,99200.59
2023-02-04T10:02:02.762Z,99199.25
2023-02-04T10:04:31.117Z,99201.81
2023-02-04T10:07:00.788Z,99203.69
2023-02-04T10:09:29.081Z,99196.50
2023-02-04T10:11:57.400Z,99205.38
2023-02-04T10:14:25.928Z,99211.78
2023-02-04T10:16:59.353Z,99206.88
2023-02-04T10:19:29.939Z,99209.53
2023-02-04T10:22:00.157Z,99209.13
2023-02-04T10:24:30.643Z,99217.72
2023-02-04T10:27:09.511Z,99210.78
2023-02-04T10:29:38.409Z,99214.19
2023-02-04T10:32:06.717Z,99224.59
2023-02-04T10:34:39.785Z,99230.63
2023-02-04T10:37:21.830Z,99227.47
2023-02-04T10:39:50.721Z,99230.00
2023-02-04T10:42:24.680Z,99220.47
2023-02-04T10:44:53.512Z,99221.06
2023-02-04T10:47:24.620Z,99226.59
2023-02-04T10:49:59.856Z,99230.84
2023-02-04T10:52:37.870Z,99225.78
2023-02-04T10:55:09.811Z,99236.16
2023-02-04T10:57:41.410Z,99231.28
2023-02-04T11:00:19.289Z,99237.72
2023-02-04T11:02:56.267Z,99236.56
2023-02-04T11:05:31.573Z,99236.56
2023-02-04T11:08:02.021Z,99232.50
2023-02-04T11:10:33.986Z,99239.84
2023-02-04T11:13:05.643Z,99241.09
2023-02-04T11:15:45.335Z,99245.00
2023-02-04T11:18:26.834Z,99250.41
2023-02-04T11:20:57.537Z,99240.13
2023-02-04T11:23:38.917Z,99239.41
2023-02-04T11:26:13.239Z,99239.59
2023-02-04T11:28:52.656Z,99239.59
2023-02-04T11:31:43.799Z,99240.53
2023-02-04T11:34:27.387Z,99243.19
2023-02-04T11:37:14.858Z,99252.84
2023-02-04T11:39:46.987Z,99252.09
2023-02-04T11:42:22.380Z,99251.88
2023-02-04T11:44:55.239Z,99247.66
2023-02-04T11:47:26.004Z,99244.34
2023-02-04T11:49:58.620Z,99240.22
2023-02-04T11:52:27.043Z,99230.75
2023-02-04T11:54:59.163Z,99225.38
2023-02-04T11:57:28.296Z,99219.34
2023-02-04T11:59:56.907Z,99218.38
2023-02-04T12:02:27.106Z,99222.00
2023-02-04T12:04:58.383Z,99228.88
2023-02-04T12:07:29.579Z,99233.97
2023-02-04T12:09:59.522Z,99227.28
2023-02-04T12:12:30.943Z,99229.84
2023-02-04T12:15:04.990Z,99236.81
2023-02-04T12:17:33.255Z,99216.41
2023-02-04T12:20:01.555Z,99231.63
2023-02-04T12:22:29.802Z,99225.38
2023-02-04T12:24:59.386Z,99223.69
2023-02-04T12:27:28.303Z,99224.00
2023-02-04T12:29:56.548Z,99225.56
2023-02-04T12:32:24.907Z,99221.03
2023-02-04T12:34:53.108Z,99209.59
2023-02-04T12:37:21.361Z,99208.09
2023-02-04T12:39:49.654Z,99211.63
2023-02-04T12:42:19.243Z,99218.38
2023-02-04T12:44:47.508Z,99216.41
2023-02-04T12:47:15.896Z,99209.94
2023-02-04T12:49:44.143Z,99212.56
2023-02-04T12:52:12.417Z,99209.16
2023-02-04T12:54:40.795Z,99211.91
2023-02-04T12:57:09.188Z,99224.22
2023-02-04T12:59:39.060Z,99218.28
2023-02-04T13:02:07.508Z,99212.78
2023-02-04T13:04:36.406Z,99225.91
2023-02-04T13:07:07.238Z,99223.94
2023-02-04T13:09:35.649Z,99221.59
2023-02-04T13:12:03.948Z,99214.81
2023-02-04T13:14:32.583Z,99219.56
2023-02-04T13:17:02.212Z,99219.91
2023-02-04T13:19:31.006Z,99219.38
2023-02-04T13:21:59.259Z,99225.97
2023-02-04T13:24:28.108Z,99225.34
2023-02-04T13:26:56.612Z,99226.81
2023-02-04T13:29:24.896Z,99228.84
2023-02-04T13:31:53.240Z,99236.47
2023-02-04T13:34:22.993Z,99245.47
2023-02-04T13:36:51.254Z,99247.56
2023-02-04T13:39:19.511Z,99244.72
2023-02-04T13:41:47.980Z,99250.75
2023-02-04T13:44:16.238Z,99258.34
2023-02-04T13:46:44.465Z,99247.53
2023-02-04T13:49:12.748Z,99257.78
2023-02-04T13:51:42.351Z,99253.00
2023-02-04T13:54:10.621Z,99256.06
2023-02-04T13:56:38.971Z,99243.44
2023-02-04T13:59:07.208Z,99246.47
2023-02-04T14:01:35.494Z,99251.34
2023-02-04T14:04:03.778Z,99252.47
2023-02-04T14:06:35.067Z,99256.38
2023-02-04T14:09:05.890Z,99262.94
2023-02-04T14:11:34.153Z,99274.63
2023-02-04T14:14:02.369Z,99269.53
2023-02-04T14:16:30.670Z,99269.75
2023-02-04T14:18:58.939Z,99276.38
2023-02-04T14:21:27.175Z,99275.19
2023-02-04T14:23:55.473Z,99285.09
2023-02-04T14:26:25.219Z,99273.03
2023-02-04T14:28:53.474Z,99278.31
2023-02-04T14:31:21.761Z,99274.13
2023-02-04T14:33:50.506Z,99286.78
2023-02-04T14:36:19.089Z,99290.56
2023-02-04T14:38:47.310Z,99284.72
2023-02-04T14:41:17.398Z,99294.06
2023-02-04T14:43:47.080Z,99297.91
2023-02-04T14:46:15.418Z,99303.19
2023-02-04T14:48:45.433Z,99306.13
2023-02-04T14:51:13.988Z,99300.19
2023-02-04T14:53:44.206Z,99303.94
2023-02-04T14:56:16.273Z,99312.84
2023-02-04T14:58:45.912Z,99315.56
2023-02-04T15:01:14.176Z,99317.47
2023-02-04T15:03:42.433Z,99311.59
2023-02-04T15:06:10.692Z,99312.66
2023-02-04T15:08:39.043Z,99312.25
2023-02-04T15:11:07.332Z,99320.19
2023-02-04T15:13:35.604Z,99312.44
2023-02-04T15:16:05.616Z,99326.69
2023-02-04T15:18:34.151Z,99323.38
2023-02-04T15:21:02.970Z,99324.31
2023-02-04T15:23:31.316Z,99326.97
2023-02-04T15:25:59.590Z,99325.31
2023-02-04T15:28:29.867Z,99336.94
2023-02-04T15:30:58.800Z,99338.72
2023-02-04T15:33:28.738Z,99337.19
2023-02-04T15:35:57.089Z,99346.06
2023-02-04T15:38:25.515Z,99347.09
2023-02-04T15:40:53.812Z,99346.34
2023-02-04T15:43:22.078Z,99343.78
2023-02-04T15:45:50.429Z,99345.66
2023-02-04T15:48:19.675Z,99356.22
2023-02-04T15:50:49.381Z,99351.03
2023-02-04T15:53:18.439Z,99351.97
2023-02-04T15:55:47.055Z,99353.75
2023-02-04T15:58:15.623Z,99361.78
2023-02-04T16:00:44.146Z,99365.44
2023-02-04T16:03:12.459Z,99371.69
2023-02-04T16:05:40.810Z,99366.47
2023-02-04T16:08:10.656Z,99365.81
2023-02-04T16:10:38.969Z,99371.16
2023-02-04T16:13:07.548Z,99376.63
2023-02-04T16:15:36.095Z,99372.28
2023-02-04T16:18:04.714Z,99376.78
2023-02-04T16:20:33.364Z,99372.47
2023-02-04T16:23:02.365Z,99376.97
2023-02-04T16:25:32.267Z,99376.97
2023-02-04T16:28:01.030Z,99374.41
2023-02-04T16:30:29.531Z,99388.56
2023-02-04T16:32:57.944Z,99389.56
2023-02-04T16:35:27.138Z,99389.75
2023-02-04T16:37:55.471Z,99397.81
2023-02-04T16:40:23.754Z,99404.91
2023-02-04T16:42:53.384Z,99410.28
2023-02-04T16:45:23.013Z,99407.72
2023-02-04T16:47:52.460Z,99409.50
2023-02-04T16:50:22.070Z,99415.72
2023-02-04T16:52:50.454Z,99412.22
2023-02-04T16:55:18.773Z,99418.38
2023-02-04T16:57:47.107Z,99422.88
2023-02-04T17:00:17.673Z,99422.00
2023-02-04T17:02:46.010Z,99427.38
2023-02-04T17:05:14.558Z,99432.75
2023-02-04T17:07:42.948Z,99434.63
2023-02-04T17:10:11.763Z,99440.84
2023-02-04T17:12:40.072Z,99443.56
2023-02-04T17:15:09.262Z,99444.56
2023-02-04T17:17:38.952Z,99454.28
2023-02-04T17:20:07.908Z,99447.38
2023-02-04T17:22:36.191Z,99453.59
2023-02-04T17:25:04.490Z,99449.25
2023-02-04T17:27:32.811Z,99458.94
2023-02-04T17:30:01.230Z,99452.97
2023-02-04T17:32:29.597Z,99453.19
2023-02-04T17:35:01.366Z,99452.34
2023-02-04T17:37:29.712Z,99451.75
2023-02-04T17:39:58.013Z,99456.31
2023-02-04T17:42:26.358Z,99459.13
2023-02-04T17:44:55.113Z,99454.09
2023-02-04T17:47:23.434Z,99458.78
2023-02-04T17:49:51.848Z,99462.50
2023-02-04T17:52:21.906Z,99463.50
2023-02-04T17:54:50.200Z,99451.44
2023-02-04T17:57:21.301Z,99460.44
2023-02-04T17:59:51.557Z,99467.66
2023-02-04T18:02:27.781Z,99460.06
2023-02-04T18:05:01.056Z,99469.75
2023-02-04T18:07:30.721Z,99469.00
2023-02-04T18:10:11.517Z,99476.13
2023-02-04T18:12:39.777Z,99473.56
2023-02-04T18:15:26.600Z,99472.84
2023-02-04T18:18:01.561Z,99485.34
2023-02-04T18:20:30.433Z,99486.34
2023-02-04T18:23:04.645Z,99479.59
2023-02-04T18:25:34.083Z,99482.41
2023-02-04T18:28:11.386Z,99477.22
2023-02-04T18:30:39.767Z,99478.22
2023-02-04T18:33:16.585Z,99481.00
2023-02-04T18:35:48.118Z,99476.75
2023-02-04T18:38:25.875Z,99480.47
2023-02-04T18:41:03.498Z,99477.16
2023-02-04T18:43:37.728Z,99486.09
2023-02-04T18:46:24.350Z,99495.09
2023-02-04T18:49:06.661Z,99490.91
2023-02-04T18:51:40.242Z,99497.25
2023-02-04T18:54:35.607Z,99494.84
2023-02-04T18:57:38.638Z,99496.94
2023-02-04T19:00:34.488Z,99496.28
2023-02-04T19:03:19.546Z,99509.69
2023-02-04T19:05:50.234Z,99504.63
2023-02-04T19:08:28.785Z,99497.75
2023-02-04T19:11:01.240Z,99497.03
2023-02-04T19:13:40.018Z,99492.00
2023-02-04T19:16:23.432Z,99495.63
2023-02-04T19:18:54.230Z,99496.72
2023-02-04T19:21:29.784Z,99500.47
2023-02-04T19:24:20.966Z,99501.63
2023-02-04T19:26:55.796Z,99503.75
2023-02-04T19:29:41.482Z,99499.69
2023-02-04T19:32:28.836Z,99499.16
2023-02-04T19:35:02.258Z,99493.16
2023-02-04T19:37:40.572Z,99495.97
2023-02-04T19:40:30.606Z,99492.69
2023-02-04T19:43:16.271Z,99491.25
2023-02-04T19:45:46.426Z,99499.38
2023-02-04T19:48:23.773Z,99492.63
2023-02-04T19:50:54.169Z,99496.28
2023-02-04T19:53:27.049Z,99493.81
2023-02-04T19:55:55.932Z,99496.59
2023-02-04T19:58:29.327Z,99496.78
2023-02-04T20:01:00.622Z,99493.50
2023-02-04T20:03:41.037Z,99497.19
2023-02-04T20:06:35.060Z,99501.84
2023-02-04T20:09:07.454Z,99508.22
2023-02-04T20:12:00.504Z,99503.31
2023-02-04T20:14:47.661Z,99500.81
2023-02-04T20:17:28.512Z,99521.16
2023-02-04T20:19:59.284Z,99509.16
2023-02-04T20:22:52.728Z,99517.22
2023-02-04T20:25:46.918Z,99518.34
2023-02-04T20:28:41.190Z,99527.31
2023-02-04T20:31:26.485Z,99532.69
2023-02-04T20:33:57.594Z,99533.75
2023-02-04T20:36:40.826Z,99537.38
2023-02-04T20:39:38.037Z,99534.94
2023-02-04T20:42:44.443Z,99544.75
2023-02-04T20:45:34.106Z,99552.00
2023-02-04T20:48:28.771Z,99548.66
2023-02-04T20:50:58.592Z,99549.59
2023-02-04T20:53:29.688Z,99550.47
2023-02-04T20:56:03.832Z,99554.97
2023-02-04T20:58:38.409Z,99553.22
2023-02-04T21:01:22.510Z,99569.03
2023-02-04T21:03:52.415Z,99566.53
2023-02-04T21:06:28.294Z,99568.44
2023-02-04T21:08:58.566Z,99561.59
2023-02-04T21:11:27.750Z,99560.81
2023-02-04T21:13:56.556Z,99565.25
2023-02-04T21:16:24.861Z,99568.81
2023-02-04T21:18:54.837Z,99568.13
2023-02-04T21:21:24.552Z,99570.84
2023-02-04T21:23:52.966Z,99569.22
2023-02-04T21:26:21.257Z,99572.06
2023-02-04T21:28:49.518Z,99571.22
2023-02-04T21:31:17.913Z,99571.38
2023-02-04T21:33:46.433Z,99572.41
2023-02-04T21:36:16.152Z,99569.03
2023-02-04T21:38:44.476Z,99567.34
2023-02-04T21:41:13.437Z,99570.09
2023-02-04T21:43:41.751Z,99571.00
2023-02-04T21:46:10.267Z,99568.44
2023-02-04T21:48:38.586Z,99570.25
2023-02-04T21:51:07.276Z,99564.16
2023-02-04T21:53:37.075Z,99562.50
2023-02-04T21:56:06.080Z,99562.56
2023-02-04T21:58:34.514Z,99576.66
2023-02-04T22:01:02.856Z,99572.34
2023-02-04T22:03:31.191Z,99583.81
2023-02-04T22:05:59.524Z,99576.13
2023-02-04T22:08:28.041Z,99574.41
2023-02-04T22:10:57.690Z,99575.31
2023-02-04T22:13:26.067Z,99576.22
2023-02-04T22:15:54.357Z,99576.34
2023-02-04T22:18:22.712Z,99567.66
2023-02-04T22:20:51.068Z,99572.13
2023-02-04T22:23:19.502Z,99575.75
2023-02-04T22:25:47.934Z,99574.97
2023-02-04T22:28:17.802Z,99568.91
2023-02-04T22:30:46.329Z,99572.53
2023-02-04T22:33:15.096Z,99576.94
2023-02-04T22:35:43.959Z,99579.63
2023-02-04T22:38:12.504Z,99577.06
2023-02-04T22:40:40.882Z,99565.84
2023-02-04T22:43:09.355Z,99572.91
2023-02-04T22:45:39.218Z,99586.06
2023-02-04T22:48:07.949Z,99579.31
2023-02-04T22:50:36.363Z,99579.44
2023-02-04T22:53:04.725Z,99589.16
2023-02-04T22:55:33.308Z,99589.28
2023-02-04T22:58:01.952Z,99589.38
2023-02-04T23:00:30.447Z,99600.78
2023-02-04T23:03:00.192Z,99599.16
2023-02-04T23:05:28.624Z,99602.72
2023-02-04T23:07:56.988Z,99601.09
2023-02-04T23:10:25.398Z,99599.38
2023-02-04T23:12:53.786Z,99592.56
2023-02-04T23:15:22.253Z,99595.19
2023-02-04T23:17:52.336Z,99592.66
2023-02-04T23:20:22.112Z,99592.78
2023-02-04T23:22:50.610Z,99592.88
2023-02-04T23:25:20.918Z,99591.22
2023-02-04T23:27:49.453Z,99591.31
2023-02-04T23:30:18.362Z,99592.28
2023-02-04T23:32:47.091Z,99592.38
2023-02-04T23:35:15.587Z,99596.00
2023-02-04T23:37:45.350Z,99589.97
2023-02-04T23:40:13.761Z,99588.34
2023-02-04T23:42:42.161Z,99591.88
2023-02-04T23:45:10.968Z,99598.06
2023-02-04T23:47:39.252Z,99602.44
2023-02-04T23:50:08.860Z,99603.44
2023-02-04T23:52:37.155Z,99599.97
2023-02-04T23:55:07.947Z,99597.41
2023-02-04T23:57:36.267Z,99594.00
